createdAt,value
2019-02-14T00:01:39.203Z,25.23
2019-02-14T00:04:14.216Z,24.20
2019-02-14T00:06:49.564Z,25.20
2019-02-14T00:09:24.593Z,23.23
2019-02-14T00:11:59.958Z,26.47
2019-02-14T00:14:35.617Z,24.63
2019-02-14T00:17:10.114Z,23.93
2019-02-14T00:19:44.981Z,24.70
2019-02-14T00:22:20.306Z,24.33
2019-02-14T00:24:55.349Z,23.20
2019-02-14T00:27:30.375Z,24.47
2019-02-14T00:30:09.522Z,26.03
2019-02-14T00:32:44.647Z,23.50
2019-02-14T00:35:25.212Z,22.90
2019-02-14T00:37:57.163Z,22.73
2019-02-14T00:40:32.188Z,25.23
2019-02-14T00:43:07.525Z,22.27
2019-02-14T00:45:42.550Z,23.60
2019-02-14T00:48:17.910Z,22.43
2019-02-14T00:50:52.946Z,23.27
2019-02-14T00:53:27.957Z,24.50
2019-02-14T00:56:03.009Z,24.90
2019-02-14T00:58:38.029Z,26.10
2019-02-14T01:01:13.396Z,23.10
2019-02-14T01:03:49.765Z,22.10
2019-02-14T01:06:25.102Z,22.27
2019-02-14T01:09:01.466Z,23.20
2019-02-14T01:11:39.045Z,22.10
2019-02-14T01:14:14.076Z,24.83
2019-02-14T01:16:49.101Z,22.87
2019-02-14T01:19:25.418Z,24.80
2019-02-14T01:22:00.499Z,22.93
2019-02-14T01:24:35.878Z,23.47
2019-02-14T01:27:11.225Z,22.80
2019-02-14T01:29:47.019Z,22.20
2019-02-14T01:32:21.694Z,21.70
2019-02-14T01:34:56.189Z,20.70
2019-02-14T01:37:31.032Z,21.67
2019-02-14T01:40:06.527Z,20.43
2019-02-14T01:42:41.736Z,20.43
2019-02-14T01:45:16.776Z,21.07
2019-02-14T01:47:52.213Z,20.67
2019-02-14T01:50:28.683Z,19.80
2019-02-14T01:53:04.044Z,19.83
2019-02-14T01:55:39.073Z,19.33
2019-02-14T01:58:14.382Z,19.00
2019-02-14T02:00:49.404Z,22.33
2019-02-14T02:03:24.778Z,20.23
2019-02-14T02:06:00.127Z,20.97
2019-02-14T02:08:35.489Z,21.73
2019-02-14T02:11:10.686Z,22.37
2019-02-14T02:13:46.057Z,20.00
2019-02-14T02:16:21.398Z,20.00
2019-02-14T02:18:56.423Z,19.87
2019-02-14T02:21:31.779Z,21.83
2019-02-14T02:24:07.123Z,21.90
2019-02-14T02:26:42.466Z,19.30
2019-02-14T02:29:17.485Z,19.43
2019-02-14T02:31:52.839Z,18.77
2019-02-14T02:34:27.978Z,18.77
2019-02-14T02:37:03.424Z,17.73
2019-02-14T02:39:40.505Z,16.53
2019-02-14T02:42:23.077Z,17.37
2019-02-14T02:45:05.099Z,17.00
2019-02-14T02:47:45.836Z,16.73
2019-02-14T02:50:27.970Z,17.57
2019-02-14T02:53:07.841Z,18.40
2019-02-14T02:55:42.930Z,17.07
2019-02-14T02:58:18.318Z,17.17
2019-02-14T03:00:53.978Z,17.40
2019-02-14T03:03:29.075Z,16.50
2019-02-14T03:06:10.256Z,16.23
2019-02-14T03:08:40.920Z,16.87
2019-02-14T03:11:15.953Z,16.83
2019-02-14T03:13:50.985Z,16.33
2019-02-14T03:16:26.033Z,16.47
2019-02-14T03:19:01.059Z,16.10
2019-02-14T03:21:37.093Z,17.03
2019-02-14T03:24:12.636Z,16.63
2019-02-14T03:26:48.008Z,15.83
2019-02-14T03:29:23.336Z,14.93
2019-02-14T03:31:58.368Z,15.70
2019-02-14T03:34:33.406Z,14.93
2019-02-14T03:37:09.158Z,15.23
2019-02-14T03:39:44.216Z,14.87
2019-02-14T03:42:19.546Z,17.57
2019-02-14T03:44:55.170Z,13.97
2019-02-14T03:47:30.201Z,15.70
2019-02-14T03:50:08.386Z,14.90
2019-02-14T03:52:43.521Z,15.10
2019-02-14T03:55:19.435Z,17.33
2019-02-14T03:57:54.476Z,13.50
2019-02-14T04:00:29.911Z,15.60
2019-02-14T04:03:04.954Z,13.93
2019-02-14T04:05:40.058Z,14.53
2019-02-14T04:08:15.104Z,13.53
2019-02-14T04:10:50.134Z,14.03
2019-02-14T04:13:25.603Z,14.03
2019-02-14T04:16:00.953Z,13.23
2019-02-14T04:18:37.168Z,14.70
2019-02-14T04:21:12.214Z,14.00
2019-02-14T04:23:47.249Z,13.50
2019-02-14T04:26:25.965Z,13.43
2019-02-14T04:29:01.894Z,12.90
2019-02-14T04:31:36.967Z,14.30
2019-02-14T04:34:11.732Z,14.03
2019-02-14T04:36:46.556Z,13.33
2019-02-14T04:39:21.109Z,12.43
2019-02-14T04:41:55.617Z,13.83
2019-02-14T04:44:30.757Z,14.90
2019-02-14T04:47:05.809Z,12.80
2019-02-14T04:49:42.047Z,13.67
2019-02-14T04:52:17.478Z,14.17
2019-02-14T04:54:52.914Z,13.90
2019-02-14T04:57:27.961Z,12.73
2019-02-14T05:00:03.722Z,13.80
2019-02-14T05:02:38.759Z,14.13
2019-02-14T05:05:14.509Z,14.07
2019-02-14T05:07:49.629Z,14.33
2019-02-14T05:10:26.410Z,13.20
2019-02-14T05:13:01.758Z,13.17
2019-02-14T05:15:36.861Z,14.10
2019-02-14T05:18:12.342Z,13.93
2019-02-14T05:20:48.375Z,13.33
2019-02-14T05:23:23.399Z,14.57
2019-02-14T05:25:58.546Z,14.43
2019-02-14T05:28:35.001Z,15.57
2019-02-14T05:31:10.058Z,14.47
2019-02-14T05:33:45.617Z,15.47
2019-02-14T05:36:21.166Z,14.93
2019-02-14T05:38:56.194Z,15.23
2019-02-14T05:41:31.227Z,15.03
2019-02-14T05:44:07.325Z,14.70
2019-02-14T05:46:42.349Z,14.83
2019-02-14T05:49:17.395Z,14.80
2019-02-14T05:51:52.709Z,12.43
2019-02-14T05:54:27.759Z,13.17
2019-02-14T05:57:03.193Z,13.60
2019-02-14T05:59:38.554Z,12.53
2019-02-14T06:02:15.661Z,12.40
2019-02-14T06:04:50.692Z,14.47
2019-02-14T06:07:25.697Z,14.23
2019-02-14T06:10:00.552Z,14.30
2019-02-14T06:12:35.254Z,14.97
2019-02-14T06:15:10.637Z,13.27
2019-02-14T06:17:45.468Z,13.20
2019-02-14T06:20:20.255Z,14.70
2019-02-14T06:22:55.497Z,12.93
2019-02-14T06:25:30.539Z,12.93
2019-02-14T06:28:05.555Z,13.50
2019-02-14T06:30:41.218Z,14.00
2019-02-14T06:33:15.943Z,14.57
2019-02-14T06:35:50.765Z,13.93
2019-02-14T06:38:28.051Z,15.90
2019-02-14T06:41:03.676Z,14.03
2019-02-14T06:43:38.606Z,14.93
2019-02-14T06:46:13.437Z,14.63
2019-02-14T06:48:48.464Z,14.60
2019-02-14T06:51:23.553Z,13.53
2019-02-14T06:53:58.403Z,14.07
2019-02-14T06:56:33.826Z,14.87
2019-02-14T06:59:09.257Z,14.17
2019-02-14T07:01:44.566Z,13.60
2019-02-14T07:04:20.073Z,14.83
2019-02-14T07:06:55.117Z,14.00
2019-02-14T07:09:30.536Z,15.30
2019-02-14T07:12:05.876Z,14.37
2019-02-14T07:14:40.903Z,14.93
2019-02-14T07:17:16.250Z,14.80
2019-02-14T07:19:51.301Z,14.20
2019-02-14T07:22:26.370Z,14.20
2019-02-14T07:25:01.132Z,14.97
2019-02-14T07:27:36.091Z,14.03
2019-02-14T07:30:14.028Z,14.23
2019-02-14T07:32:49.162Z,13.90
2019-02-14T07:35:24.190Z,14.93
2019-02-14T07:37:58.889Z,14.00
2019-02-14T07:40:33.737Z,14.73
2019-02-14T07:43:09.197Z,15.60
2019-02-14T07:45:44.331Z,16.13
2019-02-14T07:48:19.162Z,14.23
2019-02-14T07:50:53.693Z,15.47
2019-02-14T07:53:28.613Z,15.20
2019-02-14T07:56:03.652Z,14.67
2019-02-14T07:58:38.992Z,14.97
2019-02-14T08:01:14.115Z,14.37
2019-02-14T08:03:50.031Z,15.03
2019-02-14T08:06:25.154Z,15.03
2019-02-14T08:08:59.899Z,15.47
2019-02-14T08:11:35.579Z,14.10
2019-02-14T08:14:10.912Z,14.23
2019-02-14T08:16:45.952Z,18.13
2019-02-14T08:19:20.974Z,15.30
2019-02-14T08:21:58.551Z,15.00
2019-02-14T08:24:33.323Z,16.37
2019-02-14T08:27:08.216Z,15.77
2019-02-14T08:29:43.165Z,17.77
2019-02-14T08:32:18.087Z,14.97
2019-02-14T08:34:53.206Z,15.87
2019-02-14T08:37:28.582Z,15.33
2019-02-14T08:40:04.680Z,15.47
2019-02-14T08:42:39.642Z,16.07
2019-02-14T08:45:14.212Z,12.93
2019-02-14T08:47:48.993Z,13.53
2019-02-14T08:50:23.943Z,13.30
2019-02-14T08:52:58.957Z,13.60
2019-02-14T08:55:33.894Z,14.83
2019-02-14T08:58:09.262Z,13.53
2019-02-14T09:00:44.012Z,16.23
2019-02-14T09:03:18.955Z,15.90
2019-02-14T09:05:53.990Z,15.47
2019-02-14T09:08:30.580Z,15.27
2019-02-14T09:11:06.523Z,14.70
2019-02-14T09:13:41.643Z,15.23
2019-02-14T09:16:17.668Z,20.33
2019-02-14T09:18:52.666Z,13.63
2019-02-14T09:21:27.610Z,14.20
2019-02-14T09:24:02.482Z,15.33
2019-02-14T09:26:38.519Z,14.83
2019-02-14T09:29:14.761Z,13.50
2019-02-14T09:31:49.900Z,12.83
2019-02-14T09:34:25.030Z,14.53
2019-02-14T09:36:59.953Z,13.40
2019-02-14T09:39:40.802Z,13.57
2019-02-14T09:42:11.972Z,13.27
2019-02-14T09:44:46.775Z,11.93
2019-02-14T09:47:21.720Z,12.50
2019-02-14T09:49:57.302Z,13.80
2019-02-14T09:52:35.827Z,12.60
2019-02-14T09:55:14.679Z,13.23
2019-02-14T09:57:50.138Z,12.97
2019-02-14T10:00:26.086Z,13.70
2019-02-14T10:03:00.840Z,13.80
2019-02-14T10:05:36.671Z,12.93
2019-02-14T10:08:13.274Z,11.07
2019-02-14T10:10:48.399Z,11.63
2019-02-14T10:13:23.805Z,12.20
2019-02-14T10:15:58.955Z,12.70
2019-02-14T10:18:35.522Z,13.87
2019-02-14T10:21:10.648Z,12.43
2019-02-14T10:23:48.611Z,12.93
2019-02-14T10:26:24.425Z,13.53
2019-02-14T10:28:59.744Z,12.40
2019-02-14T10:31:34.799Z,14.47
2019-02-14T10:34:09.848Z,12.97
2019-02-14T10:36:44.955Z,13.70
2019-02-14T10:39:20.330Z,12.40
2019-02-14T10:41:55.363Z,14.13
2019-02-14T10:44:30.507Z,13.20
2019-02-14T10:47:05.567Z,13.33
2019-02-14T10:49:40.709Z,12.80
2019-02-14T10:52:15.828Z,12.73
2019-02-14T10:54:50.840Z,13.03
2019-02-14T10:57:25.643Z,12.10
2019-02-14T11:00:00.837Z,12.77
2019-02-14T11:02:35.922Z,12.37
2019-02-14T11:05:11.173Z,12.83
2019-02-14T11:07:46.643Z,13.43
2019-02-14T11:10:21.267Z,12.03
2019-02-14T11:12:55.919Z,11.27
2019-02-14T11:15:31.027Z,17.73
2019-02-14T11:18:06.283Z,11.50
2019-02-14T11:20:41.077Z,12.33
2019-02-14T11:23:15.639Z,10.30
2019-02-14T11:25:51.175Z,9.00
2019-02-14T11:28:26.281Z,10.27
2019-02-14T11:31:01.517Z,10.60
2019-02-14T11:33:36.554Z,10.07
2019-02-14T11:36:11.596Z,9.53
2019-02-14T11:38:46.641Z,9.40
2019-02-14T11:41:24.910Z,11.47
2019-02-14T11:43:59.949Z,8.50
2019-02-14T11:46:35.360Z,10.43
2019-02-14T11:49:10.709Z,9.57
2019-02-14T11:51:45.773Z,11.13
2019-02-14T11:54:21.194Z,10.50
2019-02-14T11:56:56.766Z,10.97
2019-02-14T11:59:32.351Z,16.47
2019-02-14T12:02:07.845Z,12.00
2019-02-14T12:04:42.857Z,14.17
2019-02-14T12:07:17.910Z,12.33
2019-02-14T12:09:52.921Z,14.17
2019-02-14T12:12:28.013Z,12.73
2019-02-14T12:15:03.391Z,12.00
2019-02-14T12:17:38.530Z,14.57
2019-02-14T12:20:15.672Z,11.03
2019-02-14T12:22:50.717Z,12.73
2019-02-14T12:25:32.059Z,13.13
2019-02-14T12:28:07.509Z,25.07
2019-02-14T12:30:44.136Z,12.67
2019-02-14T12:33:19.248Z,12.80
2019-02-14T12:35:54.310Z,11.93
2019-02-14T12:38:29.608Z,13.37
2019-02-14T12:41:04.657Z,14.17
2019-02-14T12:43:39.693Z,11.37
2019-02-14T12:46:14.769Z,10.93
2019-02-14T12:48:50.067Z,14.17
2019-02-14T12:51:25.110Z,12.37
2019-02-14T12:54:00.154Z,12.53
2019-02-14T12:56:35.200Z,12.17
2019-02-14T12:59:10.440Z,12.40
2019-02-14T13:01:46.371Z,11.87
2019-02-14T13:04:23.029Z,14.70
2019-02-14T13:06:58.077Z,16.07
2019-02-14T13:09:33.126Z,11.87
2019-02-14T13:12:08.176Z,11.73
2019-02-14T13:14:44.158Z,12.93
2019-02-14T13:17:19.193Z,12.50
2019-02-14T13:19:54.530Z,12.80
2019-02-14T13:22:29.551Z,12.20
2019-02-14T13:25:07.218Z,12.03
2019-02-14T13:27:42.574Z,13.17
2019-02-14T13:30:20.618Z,12.13
2019-02-14T13:32:56.804Z,13.67
2019-02-14T13:35:31.896Z,10.93
2019-02-14T13:38:07.832Z,14.37
2019-02-14T13:40:42.891Z,12.40
2019-02-14T13:43:21.913Z,11.57
2019-02-14T13:45:56.950Z,14.53
2019-02-14T13:48:31.996Z,13.60
2019-02-14T13:51:07.514Z,11.97
2019-02-14T13:53:42.873Z,14.63
2019-02-14T13:56:17.947Z,11.37
2019-02-14T13:58:53.088Z,13.43
2019-02-14T14:01:29.306Z,14.83
2019-02-14T14:04:04.387Z,12.93
2019-02-14T14:06:39.534Z,12.53
2019-02-14T14:09:14.733Z,12.73
2019-02-14T14:11:49.757Z,12.60
2019-02-14T14:14:27.945Z,13.50
2019-02-14T14:17:03.249Z,12.03
2019-02-14T14:19:39.573Z,11.70
2019-02-14T14:22:15.976Z,11.00
2019-02-14T14:24:51.386Z,11.23
2019-02-14T14:27:26.750Z,11.10
2019-02-14T14:30:02.104Z,19.60
2019-02-14T14:32:37.519Z,14.90
2019-02-14T14:35:12.602Z,12.80
2019-02-14T14:37:48.879Z,11.63
2019-02-14T14:40:25.328Z,12.57
2019-02-14T14:43:13.033Z,11.50
2019-02-14T14:45:57.489Z,11.67
2019-02-14T14:48:34.436Z,13.47
2019-02-14T14:51:09.924Z,11.57
2019-02-14T14:53:44.950Z,12.23
2019-02-14T14:56:20.298Z,12.13
2019-02-14T14:58:56.034Z,10.30
2019-02-14T15:01:31.426Z,12.53
2019-02-14T15:04:07.447Z,12.30
2019-02-14T15:06:44.465Z,12.63
2019-02-14T15:09:20.603Z,16.77
2019-02-14T15:11:55.630Z,13.90
2019-02-14T15:14:31.696Z,11.80
2019-02-14T15:17:06.735Z,11.40
2019-02-14T15:19:42.298Z,11.60
2019-02-14T15:22:17.467Z,12.03
2019-02-14T15:24:52.607Z,12.10
2019-02-14T15:27:27.661Z,11.20
2019-02-14T15:30:02.783Z,12.77
2019-02-14T15:32:37.879Z,11.33
2019-02-14T15:35:12.942Z,14.00
2019-02-14T15:37:48.350Z,12.37
2019-02-14T15:40:23.527Z,14.37
2019-02-14T15:42:58.644Z,12.80
2019-02-14T15:45:33.776Z,12.87
2019-02-14T15:48:08.799Z,13.73
2019-02-14T15:50:44.117Z,13.63
2019-02-14T15:53:21.346Z,11.73
2019-02-14T15:55:56.770Z,10.47
2019-02-14T15:58:33.110Z,18.43
2019-02-14T16:01:09.248Z,12.77
2019-02-14T16:03:44.363Z,11.73
2019-02-14T16:06:19.449Z,14.03
2019-02-14T16:08:56.364Z,11.27
2019-02-14T16:11:33.866Z,10.80
2019-02-14T16:14:09.476Z,12.43
2019-02-14T16:16:47.248Z,12.17
2019-02-14T16:19:22.637Z,11.53
2019-02-14T16:21:58.874Z,13.13
2019-02-14T16:24:34.489Z,13.97
2019-02-14T16:27:09.583Z,13.60
2019-02-14T16:29:44.639Z,13.07
2019-02-14T16:32:20.181Z,12.80
2019-02-14T16:34:55.293Z,12.40
2019-02-14T16:37:30.418Z,11.37
2019-02-14T16:40:08.859Z,11.97
2019-02-14T16:42:44.075Z,11.70
2019-02-14T16:45:19.425Z,13.53
2019-02-14T16:47:55.478Z,11.47
2019-02-14T16:50:30.509Z,13.43
2019-02-14T16:53:05.562Z,11.57
2019-02-14T16:55:40.767Z,13.77
2019-02-14T16:58:15.915Z,13.03
2019-02-14T17:00:52.020Z,11.47
2019-02-14T17:03:27.292Z,11.37
2019-02-14T17:06:02.325Z,13.93
2019-02-14T17:08:38.378Z,13.93
2019-02-14T17:11:14.416Z,13.20
2019-02-14T17:13:49.528Z,19.03
2019-02-14T17:16:26.819Z,13.50
2019-02-14T17:19:02.154Z,13.90
2019-02-14T17:21:37.269Z,14.33
2019-02-14T17:24:12.730Z,13.67
2019-02-14T17:26:48.041Z,12.67
2019-02-14T17:29:29.329Z,12.33
2019-02-14T17:32:06.238Z,13.57
2019-02-14T17:34:44.320Z,13.03
2019-02-14T17:37:19.342Z,13.77
2019-02-14T17:39:55.595Z,13.97
2019-02-14T17:42:30.692Z,15.77
2019-02-14T17:45:09.420Z,14.80
2019-02-14T17:47:44.614Z,14.53
2019-02-14T17:50:20.656Z,14.27
2019-02-14T17:52:56.603Z,15.90
2019-02-14T17:55:31.722Z,13.73
2019-02-14T17:58:06.799Z,12.83
2019-02-14T18:00:42.724Z,15.30
2019-02-14T18:03:17.908Z,30.37
2019-02-14T18:05:53.361Z,17.70
2019-02-14T18:08:28.427Z,16.90
2019-02-14T18:11:03.519Z,14.50
2019-02-14T18:13:40.730Z,14.53
2019-02-14T18:16:16.386Z,15.33
2019-02-14T18:18:51.288Z,15.43
2019-02-14T18:21:26.649Z,15.33
2019-02-14T18:24:01.791Z,17.13
2019-02-14T18:26:37.755Z,15.67
2019-02-14T18:29:13.091Z,16.50
2019-02-14T18:31:49.453Z,16.27
2019-02-14T18:34:24.496Z,15.97
2019-02-14T18:36:59.591Z,16.67
2019-02-14T18:39:34.979Z,16.10
2019-02-14T18:42:10.349Z,22.43
2019-02-14T18:44:47.324Z,21.40
2019-02-14T18:47:22.659Z,20.87
2019-02-14T18:49:58.533Z,22.20
2019-02-14T18:52:33.874Z,22.77
2019-02-14T18:55:12.534Z,19.77
2019-02-14T18:57:47.607Z,23.33
2019-02-14T19:00:22.417Z,25.43
2019-02-14T19:02:57.384Z,24.87
2019-02-14T19:05:31.944Z,25.57
2019-02-14T19:08:08.183Z,25.33
2019-02-14T19:10:42.847Z,31.03
2019-02-14T19:13:18.901Z,24.63
2019-02-14T19:15:53.679Z,24.30
2019-02-14T19:18:29.802Z,23.87
2019-02-14T19:21:04.748Z,23.23
2019-02-14T19:23:42.962Z,20.80
2019-02-14T19:26:17.805Z,24.30
2019-02-14T19:28:52.418Z,19.90
2019-02-14T19:31:27.665Z,20.10
2019-02-14T19:34:02.497Z,23.57
2019-02-14T19:36:37.438Z,20.63
2019-02-14T19:39:12.055Z,19.57
2019-02-14T19:41:47.284Z,18.37
2019-02-14T19:44:22.020Z,17.30
2019-02-14T19:46:56.610Z,19.37
2019-02-14T19:49:31.136Z,20.50
2019-02-14T19:52:06.021Z,18.57
2019-02-14T19:54:41.143Z,18.13
2019-02-14T19:57:17.330Z,15.77
2019-02-14T19:59:52.394Z,31.13
2019-02-14T20:02:27.191Z,17.07
2019-02-14T20:05:01.841Z,17.00
2019-02-14T20:07:36.506Z,16.60
2019-02-14T20:10:12.686Z,14.90
2019-02-14T20:12:47.190Z,14.53
2019-02-14T20:15:22.669Z,15.53
2019-02-14T20:17:57.881Z,14.60
2019-02-14T20:20:32.854Z,13.07
2019-02-14T20:23:07.871Z,13.83
2019-02-14T20:25:42.911Z,18.00
2019-02-14T20:28:18.699Z,19.63
2019-02-14T20:30:54.330Z,22.33
2019-02-14T20:33:28.980Z,18.67
2019-02-14T20:36:03.637Z,15.87
2019-02-14T20:38:38.435Z,14.33
2019-02-14T20:41:13.427Z,12.00
2019-02-14T20:43:48.570Z,12.07
2019-02-14T20:46:23.115Z,9.93
2019-02-14T20:48:58.106Z,9.80
2019-02-14T20:51:38.528Z,10.10
2019-02-14T20:54:10.050Z,8.93
2019-02-14T20:56:45.150Z,10.47
2019-02-14T20:59:21.311Z,10.00
2019-02-14T21:01:56.259Z,9.60
2019-02-14T21:04:32.126Z,8.97
2019-02-14T21:07:07.017Z,9.37
2019-02-14T21:09:42.127Z,8.27
2019-02-14T21:12:16.657Z,9.70
2019-02-14T21:14:52.474Z,9.20
2019-02-14T21:17:27.679Z,9.43
2019-02-14T21:20:02.383Z,11.03
2019-02-14T21:22:37.721Z,10.40
2019-02-14T21:25:13.336Z,8.73
2019-02-14T21:27:48.572Z,9.17
2019-02-14T21:30:23.650Z,9.37
2019-02-14T21:32:58.505Z,9.43
2019-02-14T21:35:33.417Z,10.50
2019-02-14T21:38:09.169Z,10.80
2019-02-14T21:40:43.775Z,9.10
2019-02-14T21:43:18.988Z,9.87
2019-02-14T21:45:54.144Z,8.60
2019-02-14T21:48:29.227Z,10.50
2019-02-14T21:51:04.676Z,9.07
2019-02-14T21:53:39.837Z,10.07
2019-02-14T21:56:15.097Z,8.97
2019-02-14T21:58:50.033Z,9.03
2019-02-14T22:01:26.830Z,9.70
2019-02-14T22:04:02.623Z,9.00
2019-02-14T22:06:37.869Z,9.47
2019-02-14T22:09:13.023Z,9.77
2019-02-14T22:11:47.822Z,8.80
2019-02-14T22:14:23.801Z,12.73
2019-02-14T22:16:58.935Z,11.17
2019-02-14T22:19:35.206Z,10.53
2019-02-14T22:22:10.529Z,9.90
2019-02-14T22:24:45.959Z,11.07
2019-02-14T22:27:20.985Z,10.73
2019-02-14T22:29:56.036Z,10.37
2019-02-14T22:32:31.097Z,11.73
2019-02-14T22:35:06.272Z,11.57
2019-02-14T22:37:41.104Z,9.03
2019-02-14T22:40:16.214Z,9.33
2019-02-14T22:42:51.534Z,9.03
2019-02-14T22:45:27.078Z,9.60
2019-02-14T22:48:03.554Z,9.33
2019-02-14T22:50:38.402Z,15.83
2019-02-14T22:53:13.504Z,16.43
2019-02-14T22:55:48.955Z,9.13
2019-02-14T22:58:24.056Z,10.43
2019-02-14T23:01:00.140Z,9.83
2019-02-14T23:03:36.828Z,10.70
2019-02-14T23:06:12.290Z,11.43
2019-02-14T23:08:47.630Z,11.70
2019-02-14T23:11:22.668Z,12.40
2019-02-14T23:13:57.686Z,12.90
2019-02-14T23:16:32.721Z,14.40
2019-02-14T23:19:08.063Z,17.40
2019-02-14T23:21:43.201Z,14.30
2019-02-14T23:24:18.602Z,11.67
2019-02-14T23:26:53.657Z,12.47
2019-02-14T23:29:28.769Z,12.67
2019-02-14T23:32:03.733Z,12.53
2019-02-14T23:34:38.885Z,13.10
2019-02-14T23:37:14.235Z,12.27
2019-02-14T23:39:49.569Z,13.47
2019-02-14T23:42:25.328Z,13.33
2019-02-14T23:45:00.383Z,12.90
2019-02-14T23:47:35.704Z,12.27
2019-02-14T23:50:11.531Z,13.30
2019-02-14T23:52:46.581Z,13.37
2019-02-14T23:55:21.662Z,13.73
2019-02-14T23:57:56.708Z,13.57
